Akogare — JPDL — position and weather

sailwx.info

Track history (hours):
 
Tides and Currents Weather Stations Pressure Air Temp Water Temp Dewpoint Dewpoint Depression Visibility Wind Speed Wind Dir Waves Ship Positions

Akogare (Japan)

Ship's website: http://www.akogare.or.jp/eng/top.html

Last reported at 2018-Nov-11 02:21 UTC. Time now 2018-Dec-12 04:49 UTC.
Position N 34°40' E 135°12'.
Warning: this ship's position is 31 days out of date.

Length 52 m; draft 4.5 m.

Type: Sailing vessel. MMSI: 431005001.

Date/timePositionNaut miles runAvg speedWind from/ knotsBaromVisibWave heightAir tempDewpointWater temp
2018-Nov-11 02:21N 34°40' E 135°12'2 4.7
2018-Nov-11 01:58N 34°38' E 135°12'1 1.6
2018-Nov-11 01:21N 34°37' E 135°12'3 4.6
2018-Nov-11 00:37N 34°41' E 135°11'4 0.2
2018-Nov-10 04:57N 34°37' E 135°13'2 5.0
2018-Nov-10 04:28N 34°39' E 135°11'2 0.1
2018-Nov-09 09:03N 34°41' E 135°11'0 0.1
2018-Nov-09 08:57N 34°41' E 135°11'0 0.1
2018-Nov-09 08:32N 34°41' E 135°11'1 2.3
2018-Nov-09 08:02N 34°40' E 135°12'2 3.3
2018-Nov-09 07:32N 34°38' E 135°11'2 4.3
2018-Nov-09 07:02N 34°38' E 135°08'2 3.2
2018-Nov-09 06:32N 34°38' E 135°06'3 6.6
2018-Nov-09 06:02N 34°38' E 135°10'2 2.9
2018-Nov-09 05:27N 34°40' E 135°11'0 0.0
2018-Nov-09 04:57N 34°40' E 135°11'0 0.0
2018-Nov-09 04:27N 34°40' E 135°11'0 0.0
2018-Nov-09 03:57N 34°40' E 135°11'0 0.0
2018-Nov-09 03:27N 34°40' E 135°11'0 0.0
2018-Nov-09 02:57N 34°40' E 135°11'0 0.0
2018-Nov-09 02:27N 34°40' E 135°11'0 0.2
2018-Nov-09 02:03N 34°40' E 135°11'1 1.5
2018-Nov-09 01:33N 34°41' E 135°11'0 0.2
2018-Nov-09 00:56N 34°41' E 135°11'0 0.0
2018-Nov-09 00:27N 34°41' E 135°11'0 0.0
2018-Nov-09 00:03N 34°41' E 135°11'0 0.0
2018-Nov-08 23:33N 34°41' E 135°11'0 0.0
2018-Nov-08 22:57N 34°41' E 135°11'0 0.0
2018-Nov-08 22:27N 34°41' E 135°11'0 0.0
2018-Nov-08 21:57N 34°41' E 135°11'0 0.0
2018-Nov-08 21:27N 34°41' E 135°11'0 0.0
2018-Nov-08 21:02N 34°41' E 135°11'0 0.0
2018-Nov-08 20:32N 34°41' E 135°11'0 0.0
2018-Nov-08 19:57N 34°41' E 135°11'0 0.0
2018-Nov-08 19:32N 34°41' E 135°11'0 0.0
2018-Nov-08 18:57N 34°41' E 135°11'0 0.0
2018-Nov-08 18:32N 34°41' E 135°11'0 0.0
2018-Nov-08 18:03N 34°41' E 135°11'0 0.0
2018-Nov-08 17:32N 34°41' E 135°11'0 0.0
2018-Nov-08 17:03N 34°41' E 135°11'0 0.0
2018-Nov-08 16:33N 34°41' E 135°11'0 0.0
2018-Nov-08 15:57N 34°41' E 135°11'0 0.0
2018-Nov-08 15:33N 34°41' E 135°11'0 0.0
2018-Nov-08 15:03N 34°41' E 135°11'0 0.0
2018-Nov-08 14:27N 34°41' E 135°11'0 0.0
2018-Nov-08 14:03N 34°41' E 135°11'0 0.0
2018-Nov-08 13:27N 34°41' E 135°11'0 0.0
2018-Nov-08 12:57N 34°41' E 135°11'0 0.0
2018-Nov-08 12:32N 34°41' E 135°11'0 0.0
2018-Nov-08 11:57N 34°41' E 135°11'0 0.0
2018-Nov-08 11:33N 34°41' E 135°11'0 0.0
2018-Nov-08 11:03N 34°41' E 135°11'0 0.0
2018-Nov-08 10:33N 34°41' E 135°11'0 0.0
2018-Nov-08 09:57N 34°41' E 135°11'0 0.0
2018-Nov-08 09:26N 34°41' E 135°11'0 0.0
2018-Nov-08 09:03N 34°41' E 135°11'0 0.0
2018-Nov-08 08:27N 34°41' E 135°11'0 0.0
2018-Nov-08 07:57N 34°41' E 135°11'0 0.0
2018-Nov-08 07:32N 34°41' E 135°11'0 0.0
2018-Nov-08 06:50N 34°41' E 135°11'0 0.0
2018-Nov-08 06:33N 34°41' E 135°11'0 0.0
2018-Nov-08 06:03N 34°41' E 135°11'0 0.0
2018-Nov-08 05:27N 34°41' E 135°11'0 0.0
2018-Nov-08 05:03N 34°41' E 135°11'0 0.0
2018-Nov-08 04:21N 34°41' E 135°11'0 0.0
2018-Nov-08 03:57N 34°41' E 135°11'0 0.0
2018-Nov-08 03:33N 34°41' E 135°11'0 0.0
2018-Nov-08 03:03N 34°41' E 135°11'0 0.0
2018-Nov-08 02:33N 34°41' E 135°11'0 0.0
2018-Nov-08 02:03N 34°41' E 135°11'0 0.0
2018-Nov-08 01:33N 34°41' E 135°11'0 0.0
2018-Nov-08 00:51N 34°41' E 135°11'0 0.0
2018-Nov-08 00:39N 34°41' E 135°11'0 0.1
2018-Nov-08 00:33N 34°41' E 135°11'0 0.0
2018-Nov-08 00:21N 34°41' E 135°11'0 0.0
2018-Nov-08 00:02N 34°41' E 135°11'0 0.0
2018-Nov-07 23:27N 34°41' E 135°11'0 0.0
2018-Nov-07 22:57N 34°41' E 135°11'0 0.0
2018-Nov-07 22:33N 34°41' E 135°11'0 0.0
2018-Nov-07 21:56N 34°41' E 135°11'0 0.0
2018-Nov-07 21:33N 34°41' E 135°11'0 0.0
2018-Nov-07 21:03N 34°41' E 135°11'0 0.0
2018-Nov-07 20:27N 34°41' E 135°11'0 0.0
2018-Nov-07 20:03N 34°41' E 135°11'0 0.0
2018-Nov-07 19:15N 34°41' E 135°11'0 0.0
2018-Nov-07 19:03N 34°41' E 135°11'0 0.0
2018-Nov-07 18:33N 34°41' E 135°11'0 0.0
2018-Nov-07 18:03N 34°41' E 135°11'0 0.0
2018-Nov-07 17:26N 34°41' E 135°11'0 0.0
2018-Nov-07 17:02N 34°41' E 135°11'0 0.0
2018-Nov-07 16:27N 34°41' E 135°11'0 0.0
2018-Nov-07 15:57N 34°41' E 135°11'0 0.0
2018-Nov-07 15:27N 34°41' E 135°11'0 0.0
2018-Nov-07 14:57N 34°41' E 135°11'0 0.0
2018-Nov-07 14:26N 34°41' E 135°11'0 0.0
2018-Nov-07 13:57N 34°41' E 135°11'0 0.0
2018-Nov-07 13:33N 34°41' E 135°11'0 0.0
2018-Nov-07 12:57N 34°41' E 135°11'0 0.0
2018-Nov-07 12:27N 34°41' E 135°11'0 0.0
2018-Nov-07 11:57N 34°41' E 135°11'0 0.0
2018-Nov-07 11:33N 34°41' E 135°11'0 0.0
2018-Nov-07 11:02N 34°41' E 135°11'0 0.0
2018-Nov-07 10:33N 34°41' E 135°11'0 0.0
2018-Nov-07 09:57N 34°41' E 135°11'0 0.0
2018-Nov-07 09:27N 34°41' E 135°11'0 0.0
2018-Nov-07 08:57N 34°41' E 135°11'0 0.0
2018-Nov-07 08:33N 34°41' E 135°11'0 0.0
2018-Nov-07 07:45N 34°41' E 135°11'0 0.0
2018-Nov-07 07:33N 34°41' E 135°11'0 0.0
2018-Nov-07 06:51N 34°41' E 135°11'0 0.0
2018-Nov-07 06:21N 34°41' E 135°11'0 0.0
2018-Nov-07 05:50N 34°41' E 135°11'0 0.0
2018-Nov-07 05:21N 34°41' E 135°11'0 0.0
2018-Nov-07 04:57N 34°41' E 135°11'0 0.0
2018-Nov-07 04:19N 34°41' E 135°11'14 3.0
2018-Nov-06 23:30N 34°27' E 135°05'2 4.5
2018-Nov-06 23:03N 34°25' E 135°05'0 3.8
2018-Nov-06 23:00N 34°25' E 135°04'4 3.9
2018-Nov-06 22:00N 34°22' E 135°03'2 3.9
2018-Nov-06 21:30N 34°20' E 135°02'2 3.9
2018-Nov-06 21:03N 34°19' E 135°00'0 7.1
2018-Nov-06 21:00N 34°18' E 135°00'3 6.8
2018-Nov-06 20:30N 34°15' E 134°60'2 4.8
2018-Nov-06 20:03N 34°13' E 135°00'0 4.7
2018-Nov-06 20:00N 34°13' E 135°00'3 5.0
2018-Nov-06 19:30N 34°10' E 135°00'2 4.7
2018-Nov-06 19:03N 34°08' E 135°00'0 4.7
2018-Nov-06 19:00N 34°08' E 135°00'2 4.8
2018-Nov-06 18:30N 34°05' E 135°01'2 5.0
2018-Nov-06 18:03N 34°03' E 135°01'0 4.3
2018-Nov-06 18:00N 34°03' E 135°01'2 4.3
2018-Nov-06 17:30N 34°01' E 135°01'2 3.9
2018-Nov-06 17:03N 33°59' E 135°01'0 3.8
2018-Nov-06 17:00N 33°59' E 135°01'2 3.6
2018-Nov-06 16:30N 33°57' E 135°02'2 3.1
2018-Nov-06 16:02N 33°56' E 135°02'0 3.1
2018-Nov-06 15:59N 33°55' E 135°02'2 2.9
2018-Nov-06 15:15N 33°53' E 135°02'1 3.1
2018-Nov-06 14:56N 33°52' E 135°02'247 6.9
2018-Nov-05 03:01N 35°14' E 139°46'1 7.7
2018-Nov-05 02:54N 35°15' E 139°46'3 7.2
2018-Nov-05 02:30N 35°17' E 139°45'3 7.2
2018-Nov-05 02:03N 35°20' E 139°42'0 7.5
2018-Nov-05 02:00N 35°20' E 139°42'4 7.5
2018-Nov-05 01:30N 35°24' E 139°43'3 7.5
2018-Nov-05 01:03N 35°27' E 139°41'0 7.8
2018-Nov-05 01:00N 35°27' E 139°40'2 3.2
2018-Nov-05 00:30N 35°28' E 139°38'0 0.0
2018-Nov-05 00:00N 35°28' E 139°38'0 0.0
2018-Nov-04 23:30N 35°28' E 139°38'0 0.0
2018-Nov-04 23:03N 35°28' E 139°38'0 0.0
2018-Nov-04 23:00N 35°28' E 139°38'0 0.0
2018-Nov-04 22:30N 35°28' E 139°38'0 0.0
2018-Nov-04 22:03N 35°28' E 139°38'0 0.0
2018-Nov-04 22:00N 35°28' E 139°38'0 0.0
2018-Nov-04 21:30N 35°28' E 139°38'0 0.0
2018-Nov-04 21:03N 35°28' E 139°38'0 0.0
2018-Nov-04 21:00N 35°28' E 139°38'0 0.0
2018-Nov-04 20:30N 35°28' E 139°38'0 0.0
2018-Nov-04 20:03N 35°28' E 139°38'0 0.0
2018-Nov-04 20:00N 35°28' E 139°38'0 0.0
2018-Nov-04 19:30N 35°28' E 139°38'0 0.0
2018-Nov-04 19:03N 35°28' E 139°38'0 0.0
2018-Nov-04 19:00N 35°28' E 139°38'0 0.0
2018-Nov-04 18:30N 35°28' E 139°38'0 0.0
2018-Nov-04 18:00N 35°28' E 139°38'0 0.0
2018-Nov-04 17:30N 35°28' E 139°38'0 0.0
2018-Nov-04 17:00N 35°28' E 139°38'0 0.0
2018-Nov-04 16:30N 35°28' E 139°38'0 0.0
2018-Nov-04 16:03N 35°28' E 139°38'0 0.0
2018-Nov-04 16:00N 35°28' E 139°38'0 0.0
2018-Nov-04 15:30N 35°28' E 139°38'0 0.0
2018-Nov-04 15:03N 35°28' E 139°38'0 0.0
2018-Nov-04 15:00N 35°28' E 139°38'0 0.0
2018-Nov-04 14:30N 35°28' E 139°38'0 0.0
2018-Nov-04 14:03N 35°28' E 139°38'0 0.0
2018-Nov-04 14:00N 35°28' E 139°38'0 0.0
2018-Nov-04 13:30N 35°28' E 139°38'0 0.0
2018-Nov-04 13:03N 35°28' E 139°38'0 0.0
2018-Nov-04 13:00N 35°28' E 139°38'0 0.0
2018-Nov-04 12:30N 35°28' E 139°38'0 0.0
2018-Nov-04 12:03N 35°28' E 139°38'0 0.1
2018-Nov-04 12:00N 35°28' E 139°38'0 0.0
2018-Nov-04 11:30N 35°28' E 139°38'0 0.0
2018-Nov-04 11:03N 35°28' E 139°38'0 0.1
2018-Nov-04 11:00N 35°28' E 139°38'0 0.0
2018-Nov-04 10:30N 35°28' E 139°38'0 0.0
2018-Nov-04 10:03N 35°28' E 139°38'0 0.0
2018-Nov-04 10:00N 35°28' E 139°38'0 0.0
2018-Nov-04 09:30N 35°28' E 139°38'0 0.0
2018-Nov-04 09:03N 35°28' E 139°38'0 0.0
2018-Nov-04 09:00N 35°28' E 139°38'0 0.0
2018-Nov-04 08:30N 35°28' E 139°38'0 0.0
2018-Nov-04 08:03N 35°28' E 139°38'0 0.0
2018-Nov-04 08:00N 35°28' E 139°38'0 0.0
2018-Nov-04 07:30N 35°28' E 139°38'0 0.0
2018-Nov-04 07:03N 35°28' E 139°38'0 0.0
2018-Nov-04 07:00N 35°28' E 139°38'0 0.2
2018-Nov-04 06:31N 35°28' E 139°38'0 0.8
2018-Nov-04 06:04N 35°27' E 139°39'0 3.1
2018-Nov-04 06:01N 35°27' E 139°39'1 1.1
2018-Nov-04 05:31N 35°27' E 139°39'1 3.2
2018-Nov-04 05:04N 35°27' E 139°41'0 3.5
2018-Nov-04 05:00N 35°27' E 139°41'2 3.8
2018-Nov-04 04:31N 35°26' E 139°44'2 4.0
2018-Nov-04 04:04N 35°27' E 139°45'0 4.3
2018-Nov-04 04:01N 35°27' E 139°46'2 4.5
2018-Nov-04 03:30N 35°29' E 139°48'3 6.2
2018-Nov-04 03:02N 35°32' E 139°49'0 5.4
2018-Nov-04 02:59N 35°32' E 139°50'2 3.9
2018-Nov-04 02:30N 35°33' E 139°51'1 2.0
2018-Nov-04 02:02N 35°34' E 139°51'0 2.1
2018-Nov-04 01:54N 35°35' E 139°51'1 2.2
2018-Nov-04 01:24N 35°36' E 139°51'1 2.3
2018-Nov-04 01:03N 35°36' E 139°52'0 1.2
2018-Nov-04 00:51N 35°36' E 139°52'0 0.3
2018-Nov-04 00:30N 35°36' E 139°52'0 0.1
2018-Nov-03 19:50N 35°37' E 139°53'0 0.0
2018-Nov-03 16:41N 35°37' E 139°53'0 0.0
2018-Nov-03 16:23N 35°37' E 139°53'0 0.0
2018-Nov-03 16:02N 35°37' E 139°53'0 0.0
2018-Nov-03 15:50N 35°37' E 139°53'0 0.0
2018-Nov-03 15:20N 35°37' E 139°53'0 0.0
2018-Nov-03 14:50N 35°37' E 139°53'0 0.0
2018-Nov-03 14:23N 35°37' E 139°53'0 0.0
2018-Nov-03 13:35N 35°37' E 139°53'0 0.0
2018-Nov-03 13:26N 35°37' E 139°53'0 0.0
2018-Nov-03 12:05N 35°37' E 139°53'0 0.0
2018-Nov-03 11:35N 35°37' E 139°53'0 0.0
2018-Nov-03 11:05N 35°37' E 139°53'0 0.0
2018-Nov-03 10:05N 35°37' E 139°53'0 0.0
2018-Nov-03 09:35N 35°37' E 139°53'0 0.0
2018-Nov-03 08:59N 35°37' E 139°53'0 0.8
2018-Nov-03 08:30N 35°36' E 139°53'3 5.8
2018-Nov-03 08:03N 35°34' E 139°52'1 7.8
2018-Nov-03 07:59N 35°33' E 139°52'4 7.3
2018-Nov-03 07:28N 35°30' E 139°50'3 7.3
2018-Nov-03 07:03N 35°28' E 139°47'0 8.0
2018-Nov-03 07:00N 35°28' E 139°47'4 7.4
2018-Nov-03 06:30N 35°26' E 139°43'3 6.6
2018-Nov-03 06:03N 35°23' E 139°41'0 5.1
2018-Nov-03 06:00N 35°23' E 139°41'2 4.1
2018-Nov-03 05:30N 35°21' E 139°40'1 3.0
2018-Nov-03 05:03N 35°20' E 139°41'0 1.4
2018-Nov-03 05:00N 35°20' E 139°41'1 1.4
2018-Nov-03 04:30N 35°20' E 139°41'1 1.6
2018-Nov-03 04:03N 35°21' E 139°41'0 1.4
2018-Nov-03 04:00N 35°21' E 139°41'1 1.5
2018-Nov-03 03:30N 35°22' E 139°41'1 2.2
2018-Nov-03 03:03N 35°23' E 139°41'0 3.8
2018-Nov-03 03:00N 35°23' E 139°42'1 2.6
2018-Nov-03 02:30N 35°24' E 139°42'2 5.1
2018-Nov-03 02:03N 35°27' E 139°41'0 6.3
2018-Nov-03 02:00N 35°27' E 139°41'2 4.4
2018-Nov-03 01:30N 35°28' E 139°38'0 0.0
2018-Nov-03 01:03N 35°28' E 139°38'0 0.0
2018-Nov-03 01:00N 35°28' E 139°38'0 0.0
2018-Nov-03 00:27N 35°28' E 139°38'0 0.0
2018-Nov-03 00:03N 35°28' E 139°38'0 0.0
2018-Nov-03 00:00N 35°28' E 139°38'0 0.0
2018-Nov-02 23:30N 35°28' E 139°38'0 0.0
2018-Nov-02 23:03N 35°28' E 139°38'0 0.0
2018-Nov-02 23:00N 35°28' E 139°38'0 0.0
2018-Nov-02 22:30N 35°28' E 139°38'0 0.0
2018-Nov-02 22:00N 35°28' E 139°38'0 0.0
2018-Nov-02 21:30N 35°28' E 139°38'0 0.0
2018-Nov-02 21:03N 35°28' E 139°38'0 0.0
2018-Nov-02 21:00N 35°28' E 139°38'0 0.0
2018-Nov-02 20:30N 35°28' E 139°38'0 0.0
2018-Nov-02 20:03N 35°28' E 139°38'0 0.0
2018-Nov-02 20:00N 35°28' E 139°38'0 0.0
2018-Nov-02 19:30N 35°28' E 139°38'0 0.0
2018-Nov-02 19:03N 35°28' E 139°38'0 0.0
2018-Nov-02 19:00N 35°28' E 139°38'0 0.0
2018-Nov-02 18:30N 35°28' E 139°38'0 0.0
2018-Nov-02 18:03N 35°28' E 139°38'0 0.0
2018-Nov-02 17:57N 35°28' E 139°38'0 0.0
2018-Nov-02 17:30N 35°28' E 139°38'0 0.0
2018-Nov-02 17:03N 35°28' E 139°38'0 0.0
2018-Nov-02 16:57N 35°28' E 139°38'0 0.0
2018-Nov-02 16:30N 35°28' E 139°38'0 0.0
2018-Nov-02 16:03N 35°28' E 139°38'0 0.0
2018-Nov-02 15:54N 35°28' E 139°38'0 0.0
2018-Nov-02 15:30N 35°28' E 139°38'0 0.0
2018-Nov-02 15:03N 35°28' E 139°38'0 0.0
2018-Nov-02 15:00N 35°28' E 139°38'0 0.0
2018-Nov-02 14:03N 35°28' E 139°38'0 0.0
2018-Nov-02 14:00N 35°28' E 139°38'0 0.0
2018-Nov-02 13:30N 35°28' E 139°38'0 0.0
2018-Nov-02 13:00N 35°28' E 139°38'0 0.0
2018-Nov-02 12:30N 35°28' E 139°38'0 0.0
2018-Nov-02 12:03N 35°28' E 139°38'0 0.0
2018-Nov-02 12:00N 35°28' E 139°38'0 0.0
2018-Nov-02 11:27N 35°28' E 139°38'0 0.0
2018-Nov-02 11:03N 35°28' E 139°38'0 0.1
2018-Nov-02 11:00N 35°28' E 139°38'0 0.0
2018-Nov-02 10:30N 35°28' E 139°38'0 0.0
2018-Nov-02 10:03N 35°28' E 139°38'0 0.0
2018-Nov-02 10:00N 35°28' E 139°38'0 0.0
2018-Nov-02 09:27N 35°28' E 139°38'0 0.0
2018-Nov-02 09:03N 35°28' E 139°38'0 0.0
2018-Nov-02 09:00N 35°28' E 139°38'0 0.0
2018-Nov-02 08:30N 35°28' E 139°38'0 0.0
2018-Nov-02 08:03N 35°28' E 139°38'0 0.0
2018-Nov-02 08:00N 35°28' E 139°38'0 0.0
2018-Nov-02 07:30N 35°28' E 139°38'0 0.0
2018-Nov-02 07:03N 35°28' E 139°38'0 0.0
2018-Nov-02 07:00N 35°28' E 139°38'0 0.0
2018-Nov-02 06:30N 35°28' E 139°38'0 0.0
2018-Nov-02 06:03N 35°28' E 139°38'0 0.0
2018-Nov-02 06:00N 35°28' E 139°38'0 0.0
2018-Nov-02 05:30N 35°28' E 139°38'0 0.0
2018-Nov-02 05:03N 35°28' E 139°38'0 0.0
2018-Nov-02 05:00N 35°28' E 139°38'1 1.6
2018-Nov-02 04:30N 35°27' E 139°39'1 2.5
2018-Nov-02 04:03N 35°27' E 139°40'0 3.3
2018-Nov-02 04:00N 35°27' E 139°41'2 3.9
2018-Nov-02 03:30N 35°26' E 139°42'2 4.5
2018-Nov-02 03:03N 35°24' E 139°44'0 3.7
2018-Nov-02 03:00N 35°24' E 139°43'2 4.0
2018-Nov-02 02:30N 35°22' E 139°43'2 4.5
2018-Nov-02 02:03N 35°20' E 139°43'0 4.3
2018-Nov-02 02:00N 35°20' E 139°43'3 6.1
2018-Nov-02 01:30N 35°17' E 139°45'3 6.6
2018-Nov-02 01:01N 35°15' E 139°47'0 7.0
2018-Nov-02 01:00N 35°15' E 139°47'0 6.4
2018-Nov-02 00:56N 35°14' E 139°47'2 6.0
2018-Nov-02 00:35N 35°12' E 139°47'1 5.6
2018-Nov-02 00:28N 35°11' E 139°47'  
Track history (hours):
 
Tides and Currents Weather Stations Pressure Air Temp Water Temp Dewpoint Dewpoint Depression Visibility Wind Speed Wind Dir Waves Ship Positions

Akogare (Japan)

Ship's website: http://www.akogare.or.jp/eng/top.html

Last reported at 2018-Nov-11 02:21 UTC. Time now 2018-Dec-12 04:49 UTC.
Position N 34°40' E 135°12'.
Warning: this ship's position is 31 days out of date.

Length 52 m; draft 4.5 m.

Type: Sailing vessel. MMSI: 431005001.

Date/timePositionNaut miles runAvg speedWind from/ knotsBaromVisibWave heightAir tempDewpointWater temp
2018-Nov-11 02:21N 34°40' E 135°12'2 4.7
2018-Nov-11 01:58N 34°38' E 135°12'1 1.6
2018-Nov-11 01:21N 34°37' E 135°12'3 4.6
2018-Nov-11 00:37N 34°41' E 135°11'4 0.2
2018-Nov-10 04:57N 34°37' E 135°13'2 5.0
2018-Nov-10 04:28N 34°39' E 135°11'2 0.1
2018-Nov-09 09:03N 34°41' E 135°11'0 0.1
2018-Nov-09 08:57N 34°41' E 135°11'0 0.1
2018-Nov-09 08:32N 34°41' E 135°11'1 2.3
2018-Nov-09 08:02N 34°40' E 135°12'2 3.3
2018-Nov-09 07:32N 34°38' E 135°11'2 4.3
2018-Nov-09 07:02N 34°38' E 135°08'2 3.2
2018-Nov-09 06:32N 34°38' E 135°06'3 6.6
2018-Nov-09 06:02N 34°38' E 135°10'2 2.9
2018-Nov-09 05:27N 34°40' E 135°11'0 0.0
2018-Nov-09 04:57N 34°40' E 135°11'0 0.0
2018-Nov-09 04:27N 34°40' E 135°11'0 0.0
2018-Nov-09 03:57N 34°40' E 135°11'0 0.0
2018-Nov-09 03:27N 34°40' E 135°11'0 0.0
2018-Nov-09 02:57N 34°40' E 135°11'0 0.0
2018-Nov-09 02:27N 34°40' E 135°11'0 0.2
2018-Nov-09 02:03N 34°40' E 135°11'1 1.5
2018-Nov-09 01:33N 34°41' E 135°11'0 0.2
2018-Nov-09 00:56N 34°41' E 135°11'0 0.0
2018-Nov-09 00:27N 34°41' E 135°11'0 0.0
2018-Nov-09 00:03N 34°41' E 135°11'0 0.0
2018-Nov-08 23:33N 34°41' E 135°11'0 0.0
2018-Nov-08 22:57N 34°41' E 135°11'0 0.0
2018-Nov-08 22:27N 34°41' E 135°11'0 0.0
2018-Nov-08 21:57N 34°41' E 135°11'0 0.0
2018-Nov-08 21:27N 34°41' E 135°11'0 0.0
2018-Nov-08 21:02N 34°41' E 135°11'0 0.0
2018-Nov-08 20:32N 34°41' E 135°11'0 0.0
2018-Nov-08 19:57N 34°41' E 135°11'0 0.0
2018-Nov-08 19:32N 34°41' E 135°11'0 0.0
2018-Nov-08 18:57N 34°41' E 135°11'0 0.0
2018-Nov-08 18:32N 34°41' E 135°11'0 0.0
2018-Nov-08 18:03N 34°41' E 135°11'0 0.0
2018-Nov-08 17:32N 34°41' E 135°11'0 0.0
2018-Nov-08 17:03N 34°41' E 135°11'0 0.0
2018-Nov-08 16:33N 34°41' E 135°11'0 0.0
2018-Nov-08 15:57N 34°41' E 135°11'0 0.0
2018-Nov-08 15:33N 34°41' E 135°11'0 0.0
2018-Nov-08 15:03N 34°41' E 135°11'0 0.0
2018-Nov-08 14:27N 34°41' E 135°11'0 0.0
2018-Nov-08 14:03N 34°41' E 135°11'0 0.0
2018-Nov-08 13:27N 34°41' E 135°11'0 0.0
2018-Nov-08 12:57N 34°41' E 135°11'0 0.0
2018-Nov-08 12:32N 34°41' E 135°11'0 0.0
2018-Nov-08 11:57N 34°41' E 135°11'0 0.0
2018-Nov-08 11:33N 34°41' E 135°11'0 0.0
2018-Nov-08 11:03N 34°41' E 135°11'0 0.0
2018-Nov-08 10:33N 34°41' E 135°11'0 0.0
2018-Nov-08 09:57N 34°41' E 135°11'0 0.0
2018-Nov-08 09:26N 34°41' E 135°11'0 0.0
2018-Nov-08 09:03N 34°41' E 135°11'0 0.0
2018-Nov-08 08:27N 34°41' E 135°11'0 0.0
2018-Nov-08 07:57N 34°41' E 135°11'0 0.0
2018-Nov-08 07:32N 34°41' E 135°11'0 0.0
2018-Nov-08 06:50N 34°41' E 135°11'0 0.0
2018-Nov-08 06:33N 34°41' E 135°11'0 0.0
2018-Nov-08 06:03N 34°41' E 135°11'0 0.0
2018-Nov-08 05:27N 34°41' E 135°11'0 0.0
2018-Nov-08 05:03N 34°41' E 135°11'0 0.0
2018-Nov-08 04:21N 34°41' E 135°11'0 0.0
2018-Nov-08 03:57N 34°41' E 135°11'0 0.0
2018-Nov-08 03:33N 34°41' E 135°11'0 0.0
2018-Nov-08 03:03N 34°41' E 135°11'0 0.0
2018-Nov-08 02:33N 34°41' E 135°11'0 0.0
2018-Nov-08 02:03N 34°41' E 135°11'0 0.0
2018-Nov-08 01:33N 34°41' E 135°11'0 0.0
2018-Nov-08 00:51N 34°41' E 135°11'0 0.0
2018-Nov-08 00:39N 34°41' E 135°11'0 0.1
2018-Nov-08 00:33N 34°41' E 135°11'0 0.0
2018-Nov-08 00:21N 34°41' E 135°11'0 0.0
2018-Nov-08 00:02N 34°41' E 135°11'0 0.0
2018-Nov-07 23:27N 34°41' E 135°11'0 0.0
2018-Nov-07 22:57N 34°41' E 135°11'0 0.0
2018-Nov-07 22:33N 34°41' E 135°11'0 0.0
2018-Nov-07 21:56N 34°41' E 135°11'0 0.0
2018-Nov-07 21:33N 34°41' E 135°11'0 0.0
2018-Nov-07 21:03N 34°41' E 135°11'0 0.0
2018-Nov-07 20:27N 34°41' E 135°11'0 0.0
2018-Nov-07 20:03N 34°41' E 135°11'0 0.0
2018-Nov-07 19:15N 34°41' E 135°11'0 0.0
2018-Nov-07 19:03N 34°41' E 135°11'0 0.0
2018-Nov-07 18:33N 34°41' E 135°11'0 0.0
2018-Nov-07 18:03N 34°41' E 135°11'0 0.0
2018-Nov-07 17:26N 34°41' E 135°11'0 0.0
2018-Nov-07 17:02N 34°41' E 135°11'0 0.0
2018-Nov-07 16:27N 34°41' E 135°11'0 0.0
2018-Nov-07 15:57N 34°41' E 135°11'0 0.0
2018-Nov-07 15:27N 34°41' E 135°11'0 0.0
2018-Nov-07 14:57N 34°41' E 135°11'0 0.0
2018-Nov-07 14:26N 34°41' E 135°11'0 0.0
2018-Nov-07 13:57N 34°41' E 135°11'0 0.0
2018-Nov-07 13:33N 34°41' E 135°11'0 0.0
2018-Nov-07 12:57N 34°41' E 135°11'0 0.0
2018-Nov-07 12:27N 34°41' E 135°11'0 0.0
2018-Nov-07 11:57N 34°41' E 135°11'0 0.0
2018-Nov-07 11:33N 34°41' E 135°11'0 0.0
2018-Nov-07 11:02N 34°41' E 135°11'0 0.0
2018-Nov-07 10:33N 34°41' E 135°11'0 0.0
2018-Nov-07 09:57N 34°41' E 135°11'0 0.0
2018-Nov-07 09:27N 34°41' E 135°11'0 0.0
2018-Nov-07 08:57N 34°41' E 135°11'0 0.0
2018-Nov-07 08:33N 34°41' E 135°11'0 0.0
2018-Nov-07 07:45N 34°41' E 135°11'0 0.0
2018-Nov-07 07:33N 34°41' E 135°11'0 0.0
2018-Nov-07 06:51N 34°41' E 135°11'0 0.0
2018-Nov-07 06:21N 34°41' E 135°11'0 0.0
2018-Nov-07 05:50N 34°41' E 135°11'0 0.0
2018-Nov-07 05:21N 34°41' E 135°11'0 0.0
2018-Nov-07 04:57N 34°41' E 135°11'0 0.0
2018-Nov-07 04:19N 34°41' E 135°11'14 3.0
2018-Nov-06 23:30N 34°27' E 135°05'2 4.5
2018-Nov-06 23:03N 34°25' E 135°05'0 3.8
2018-Nov-06 23:00N 34°25' E 135°04'4 3.9
2018-Nov-06 22:00N 34°22' E 135°03'2 3.9
2018-Nov-06 21:30N 34°20' E 135°02'2 3.9
2018-Nov-06 21:03N 34°19' E 135°00'0 7.1
2018-Nov-06 21:00N 34°18' E 135°00'3 6.8
2018-Nov-06 20:30N 34°15' E 134°60'2 4.8
2018-Nov-06 20:03N 34°13' E 135°00'0 4.7
2018-Nov-06 20:00N 34°13' E 135°00'3 5.0
2018-Nov-06 19:30N 34°10' E 135°00'2 4.7
2018-Nov-06 19:03N 34°08' E 135°00'0 4.7
2018-Nov-06 19:00N 34°08' E 135°00'2 4.8
2018-Nov-06 18:30N 34°05' E 135°01'2 5.0
2018-Nov-06 18:03N 34°03' E 135°01'0 4.3
2018-Nov-06 18:00N 34°03' E 135°01'2 4.3
2018-Nov-06 17:30N 34°01' E 135°01'2 3.9
2018-Nov-06 17:03N 33°59' E 135°01'0 3.8
2018-Nov-06 17:00N 33°59' E 135°01'2 3.6
2018-Nov-06 16:30N 33°57' E 135°02'2 3.1
2018-Nov-06 16:02N 33°56' E 135°02'0 3.1
2018-Nov-06 15:59N 33°55' E 135°02'2 2.9
2018-Nov-06 15:15N 33°53' E 135°02'1 3.1
2018-Nov-06 14:56N 33°52' E 135°02'247 6.9
2018-Nov-05 03:01N 35°14' E 139°46'1 7.7
2018-Nov-05 02:54N 35°15' E 139°46'3 7.2
2018-Nov-05 02:30N 35°17' E 139°45'3 7.2
2018-Nov-05 02:03N 35°20' E 139°42'0 7.5
2018-Nov-05 02:00N 35°20' E 139°42'4 7.5
2018-Nov-05 01:30N 35°24' E 139°43'3 7.5
2018-Nov-05 01:03N 35°27' E 139°41'0 7.8
2018-Nov-05 01:00N 35°27' E 139°40'2 3.2
2018-Nov-05 00:30N 35°28' E 139°38'0 0.0
2018-Nov-05 00:00N 35°28' E 139°38'0 0.0
2018-Nov-04 23:30N 35°28' E 139°38'0 0.0
2018-Nov-04 23:03N 35°28' E 139°38'0 0.0
2018-Nov-04 23:00N 35°28' E 139°38'0 0.0
2018-Nov-04 22:30N 35°28' E 139°38'0 0.0
2018-Nov-04 22:03N 35°28' E 139°38'0 0.0
2018-Nov-04 22:00N 35°28' E 139°38'0 0.0
2018-Nov-04 21:30N 35°28' E 139°38'0 0.0
2018-Nov-04 21:03N 35°28' E 139°38'0 0.0
2018-Nov-04 21:00N 35°28' E 139°38'0 0.0
2018-Nov-04 20:30N 35°28' E 139°38'0 0.0
2018-Nov-04 20:03N 35°28' E 139°38'0 0.0
2018-Nov-04 20:00N 35°28' E 139°38'0 0.0
2018-Nov-04 19:30N 35°28' E 139°38'0 0.0
2018-Nov-04 19:03N 35°28' E 139°38'0 0.0
2018-Nov-04 19:00N 35°28' E 139°38'0 0.0
2018-Nov-04 18:30N 35°28' E 139°38'0 0.0
2018-Nov-04 18:00N 35°28' E 139°38'0 0.0
2018-Nov-04 17:30N 35°28' E 139°38'0 0.0
2018-Nov-04 17:00N 35°28' E 139°38'0 0.0
2018-Nov-04 16:30N 35°28' E 139°38'0 0.0
2018-Nov-04 16:03N 35°28' E 139°38'0 0.0
2018-Nov-04 16:00N 35°28' E 139°38'0 0.0
2018-Nov-04 15:30N 35°28' E 139°38'0 0.0
2018-Nov-04 15:03N 35°28' E 139°38'0 0.0
2018-Nov-04 15:00N 35°28' E 139°38'0 0.0
2018-Nov-04 14:30N 35°28' E 139°38'0 0.0
2018-Nov-04 14:03N 35°28' E 139°38'0 0.0
2018-Nov-04 14:00N 35°28' E 139°38'0 0.0
2018-Nov-04 13:30N 35°28' E 139°38'0 0.0
2018-Nov-04 13:03N 35°28' E 139°38'0 0.0
2018-Nov-04 13:00N 35°28' E 139°38'0 0.0
2018-Nov-04 12:30N 35°28' E 139°38'0 0.0
2018-Nov-04 12:03N 35°28' E 139°38'0 0.1
2018-Nov-04 12:00N 35°28' E 139°38'0 0.0
2018-Nov-04 11:30N 35°28' E 139°38'0 0.0
2018-Nov-04 11:03N 35°28' E 139°38'0 0.1
2018-Nov-04 11:00N 35°28' E 139°38'0 0.0
2018-Nov-04 10:30N 35°28' E 139°38'0 0.0
2018-Nov-04 10:03N 35°28' E 139°38'0 0.0
2018-Nov-04 10:00N 35°28' E 139°38'0 0.0
2018-Nov-04 09:30N 35°28' E 139°38'0 0.0
2018-Nov-04 09:03N 35°28' E 139°38'0 0.0
2018-Nov-04 09:00N 35°28' E 139°38'0 0.0
2018-Nov-04 08:30N 35°28' E 139°38'0 0.0
2018-Nov-04 08:03N 35°28' E 139°38'0 0.0
2018-Nov-04 08:00N 35°28' E 139°38'0 0.0
2018-Nov-04 07:30N 35°28' E 139°38'0 0.0
2018-Nov-04 07:03N 35°28' E 139°38'0 0.0
2018-Nov-04 07:00N 35°28' E 139°38'0 0.2
2018-Nov-04 06:31N 35°28' E 139°38'0 0.8
2018-Nov-04 06:04N 35°27' E 139°39'0 3.1
2018-Nov-04 06:01N 35°27' E 139°39'1 1.1
2018-Nov-04 05:31N 35°27' E 139°39'1 3.2
2018-Nov-04 05:04N 35°27' E 139°41'0 3.5
2018-Nov-04 05:00N 35°27' E 139°41'2 3.8
2018-Nov-04 04:31N 35°26' E 139°44'2 4.0
2018-Nov-04 04:04N 35°27' E 139°45'0 4.3
2018-Nov-04 04:01N 35°27' E 139°46'2 4.5
2018-Nov-04 03:30N 35°29' E 139°48'3 6.2
2018-Nov-04 03:02N 35°32' E 139°49'0 5.4
2018-Nov-04 02:59N 35°32' E 139°50'2 3.9
2018-Nov-04 02:30N 35°33' E 139°51'1 2.0
2018-Nov-04 02:02N 35°34' E 139°51'0 2.1
2018-Nov-04 01:54N 35°35' E 139°51'1 2.2
2018-Nov-04 01:24N 35°36' E 139°51'1 2.3
2018-Nov-04 01:03N 35°36' E 139°52'0 1.2
2018-Nov-04 00:51N 35°36' E 139°52'0 0.3
2018-Nov-04 00:30N 35°36' E 139°52'0 0.1
2018-Nov-03 19:50N 35°37' E 139°53'0 0.0
2018-Nov-03 16:41N 35°37' E 139°53'0 0.0
2018-Nov-03 16:23N 35°37' E 139°53'0 0.0
2018-Nov-03 16:02N 35°37' E 139°53'0 0.0
2018-Nov-03 15:50N 35°37' E 139°53'0 0.0
2018-Nov-03 15:20N 35°37' E 139°53'0 0.0
2018-Nov-03 14:50N 35°37' E 139°53'0 0.0
2018-Nov-03 14:23N 35°37' E 139°53'0 0.0
2018-Nov-03 13:35N 35°37' E 139°53'0 0.0
2018-Nov-03 13:26N 35°37' E 139°53'0 0.0
2018-Nov-03 12:05N 35°37' E 139°53'0 0.0
2018-Nov-03 11:35N 35°37' E 139°53'0 0.0
2018-Nov-03 11:05N 35°37' E 139°53'0 0.0
2018-Nov-03 10:05N 35°37' E 139°53'0 0.0
2018-Nov-03 09:35N 35°37' E 139°53'0 0.0
2018-Nov-03 08:59N 35°37' E 139°53'0 0.8
2018-Nov-03 08:30N 35°36' E 139°53'3 5.8
2018-Nov-03 08:03N 35°34' E 139°52'1 7.8
2018-Nov-03 07:59N 35°33' E 139°52'4 7.3
2018-Nov-03 07:28N 35°30' E 139°50'3 7.3
2018-Nov-03 07:03N 35°28' E 139°47'0 8.0
2018-Nov-03 07:00N 35°28' E 139°47'4 7.4
2018-Nov-03 06:30N 35°26' E 139°43'3 6.6
2018-Nov-03 06:03N 35°23' E 139°41'0 5.1
2018-Nov-03 06:00N 35°23' E 139°41'2 4.1
2018-Nov-03 05:30N 35°21' E 139°40'1 3.0
2018-Nov-03 05:03N 35°20' E 139°41'0 1.4
2018-Nov-03 05:00N 35°20' E 139°41'1 1.4
2018-Nov-03 04:30N 35°20' E 139°41'1 1.6
2018-Nov-03 04:03N 35°21' E 139°41'0 1.4
2018-Nov-03 04:00N 35°21' E 139°41'1 1.5
2018-Nov-03 03:30N 35°22' E 139°41'1 2.2
2018-Nov-03 03:03N 35°23' E 139°41'0 3.8
2018-Nov-03 03:00N 35°23' E 139°42'1 2.6
2018-Nov-03 02:30N 35°24' E 139°42'2 5.1
2018-Nov-03 02:03N 35°27' E 139°41'0 6.3
2018-Nov-03 02:00N 35°27' E 139°41'2 4.4
2018-Nov-03 01:30N 35°28' E 139°38'0 0.0
2018-Nov-03 01:03N 35°28' E 139°38'0 0.0
2018-Nov-03 01:00N 35°28' E 139°38'0 0.0
2018-Nov-03 00:27N 35°28' E 139°38'0 0.0
2018-Nov-03 00:03N 35°28' E 139°38'0 0.0
2018-Nov-03 00:00N 35°28' E 139°38'0 0.0
2018-Nov-02 23:30N 35°28' E 139°38'0 0.0
2018-Nov-02 23:03N 35°28' E 139°38'0 0.0
2018-Nov-02 23:00N 35°28' E 139°38'0 0.0
2018-Nov-02 22:30N 35°28' E 139°38'0 0.0
2018-Nov-02 22:00N 35°28' E 139°38'0 0.0
2018-Nov-02 21:30N 35°28' E 139°38'0 0.0
2018-Nov-02 21:03N 35°28' E 139°38'0 0.0
2018-Nov-02 21:00N 35°28' E 139°38'0 0.0
2018-Nov-02 20:30N 35°28' E 139°38'0 0.0
2018-Nov-02 20:03N 35°28' E 139°38'0 0.0
2018-Nov-02 20:00N 35°28' E 139°38'0 0.0
2018-Nov-02 19:30N 35°28' E 139°38'0 0.0
2018-Nov-02 19:03N 35°28' E 139°38'0 0.0
2018-Nov-02 19:00N 35°28' E 139°38'0 0.0
2018-Nov-02 18:30N 35°28' E 139°38'0 0.0
2018-Nov-02 18:03N 35°28' E 139°38'0 0.0
2018-Nov-02 17:57N 35°28' E 139°38'0 0.0
2018-Nov-02 17:30N 35°28' E 139°38'0 0.0
2018-Nov-02 17:03N 35°28' E 139°38'0 0.0
2018-Nov-02 16:57N 35°28' E 139°38'0 0.0
2018-Nov-02 16:30N 35°28' E 139°38'0 0.0
2018-Nov-02 16:03N 35°28' E 139°38'0 0.0
2018-Nov-02 15:54N 35°28' E 139°38'0 0.0
2018-Nov-02 15:30N 35°28' E 139°38'0 0.0
2018-Nov-02 15:03N 35°28' E 139°38'0 0.0
2018-Nov-02 15:00N 35°28' E 139°38'0 0.0
2018-Nov-02 14:03N 35°28' E 139°38'0 0.0
2018-Nov-02 14:00N 35°28' E 139°38'0 0.0
2018-Nov-02 13:30N 35°28' E 139°38'0 0.0
2018-Nov-02 13:00N 35°28' E 139°38'0 0.0
2018-Nov-02 12:30N 35°28' E 139°38'0 0.0
2018-Nov-02 12:03N 35°28' E 139°38'0 0.0
2018-Nov-02 12:00N 35°28' E 139°38'0 0.0
2018-Nov-02 11:27N 35°28' E 139°38'0 0.0
2018-Nov-02 11:03N 35°28' E 139°38'0 0.1
2018-Nov-02 11:00N 35°28' E 139°38'0 0.0
2018-Nov-02 10:30N 35°28' E 139°38'0 0.0
2018-Nov-02 10:03N 35°28' E 139°38'0 0.0
2018-Nov-02 10:00N 35°28' E 139°38'0 0.0
2018-Nov-02 09:27N 35°28' E 139°38'0 0.0
2018-Nov-02 09:03N 35°28' E 139°38'0 0.0
2018-Nov-02 09:00N 35°28' E 139°38'0 0.0
2018-Nov-02 08:30N 35°28' E 139°38'0 0.0
2018-Nov-02 08:03N 35°28' E 139°38'0 0.0
2018-Nov-02 08:00N 35°28' E 139°38'0 0.0
2018-Nov-02 07:30N 35°28' E 139°38'0 0.0
2018-Nov-02 07:03N 35°28' E 139°38'0 0.0
2018-Nov-02 07:00N 35°28' E 139°38'0 0.0
2018-Nov-02 06:30N 35°28' E 139°38'0 0.0
2018-Nov-02 06:03N 35°28' E 139°38'0 0.0
2018-Nov-02 06:00N 35°28' E 139°38'0 0.0
2018-Nov-02 05:30N 35°28' E 139°38'0 0.0
2018-Nov-02 05:03N 35°28' E 139°38'0 0.0
2018-Nov-02 05:00N 35°28' E 139°38'1 1.6
2018-Nov-02 04:30N 35°27' E 139°39'1 2.5
2018-Nov-02 04:03N 35°27' E 139°40'0 3.3
2018-Nov-02 04:00N 35°27' E 139°41'2 3.9
2018-Nov-02 03:30N 35°26' E 139°42'2 4.5
2018-Nov-02 03:03N 35°24' E 139°44'0 3.7
2018-Nov-02 03:00N 35°24' E 139°43'2 4.0
2018-Nov-02 02:30N 35°22' E 139°43'2 4.5
2018-Nov-02 02:03N 35°20' E 139°43'0 4.3
2018-Nov-02 02:00N 35°20' E 139°43'3 6.1
2018-Nov-02 01:30N 35°17' E 139°45'3 6.6
2018-Nov-02 01:01N 35°15' E 139°47'0 7.0
2018-Nov-02 01:00N 35°15' E 139°47'0 6.4
2018-Nov-02 00:56N 35°14' E 139°47'2 6.0
2018-Nov-02 00:35N 35°12' E 139°47'1 5.6
2018-Nov-02 00:28N 35°11' E 139°47'  

Dump ship's entire track history